Airfield :
LOGIN :

Register | Disclaimer

   EN    FR    IT 

 










Legend :    VFR   Marginal VFR   IFR   Intensive IFR   Very Intensive IFR
Visi :
Ceiling :
>= 8 km
>= 3000ft
5 to 8 km
1000 to 3000 ft
1500m to 5 km
500 to 1000 ft
800 to 1500m
200 to 500 ft
< 800m
< 200 ft
Symbols :   Thunderstorms  Fog  Heavy snow  Heavy precipitations  Wind > 20 kt
SIGMETs :     Misc.  Thunderstorms  Icing  Turbulence  Mountain Waves  Volcanic Ashes






- Airport Elevation : 25 ft
- IATA code : QCY


EGXC - RAF Coningsby

CURRENT METAR :
  • 210850Z 10006KT 3000 -RADZ BKN002 13/13 Q0994 TEMPO 4000 RADZ BKN003 RMK AMB TEMPO YLO2

EXPIRED METARs :
  • 210830Z 09005KT 3000 -RADZ BKN002 BKN030 13/13 Q0994 TEMPO 4000 -RADZ BKN003 RMK AMB TEMPO YLO2
  • 210809Z 10005KT 4000 -RA BKN003 BKN030 13/13 Q0994 TEMPO 3500 RA BKN002 RMK YLO2 TEMPO AMB
  • 210750Z 13005KT 5000 -RA SCT004 BKN030 OVC090 14/13 Q0994 TMEPO 4000 RA BKN002 RMK YLO2 TEMPO AMB
  • 210650Z 15006KT 6000 -RA BKN004 14/13 Q0995 TEMPO 4000 RA BKN002 RMK YLO2 TEMPO AMB
  • 210636Z 16007KT 9000 -RA BKN004 14/13 Q0995 TEMPO 4000 RA BKN002 RMK YLO2 TEMPO AMB

TAF AMD TAF EGXC
Valid from the 21 at 09:00 until the 22 at 03:00 UTC


210842Z 2109/2203 08004KT 9999 BKN005
TEMPO 2109/2115 2000 +RA BKN002
BECMG 2115/2118 FEW010
TEMPO 2115/2120 4000 RA
TEMPO 2118/2203 7000 -RA SCT010



MET'MAP, your aeronautical weather chart ! - Copyright ORBIFLY December 2007 - Disclaimer

ORBIFLY MET'MAP TEAM :

Programming & Development : Alexandra Zaïnal
Concept & original design : Baudouin d'Aumeries
Assistance for programming : Marc-Olivier Méhu
Technical & hardware support : Manuel Goepfert

Contact : metmap@orbifly.com




SOURCES & CREDITS :

   NOAA